sensor_id;sensor_type;location;lat;lon;timestamp;pressure;altitude;pressure_sealevel;temperature;humidity
10462;BME280;5278;42.656;23.374;2023-07-29T00:01:40;94483.16;;;26.97;40.43
10462;BME280;5278;42.656;23.374;2023-07-29T00:04:07;94478.88;;;26.96;40.67
10462;BME280;5278;42.656;23.374;2023-07-29T00:06:34;94474.41;;;26.91;40.78
10462;BME280;5278;42.656;23.374;2023-07-29T00:09:02;94478.69;;;26.87;40.74
10462;BME280;5278;42.656;23.374;2023-07-29T00:11:29;94474.66;;;26.90;40.74
10462;BME280;5278;42.656;23.374;2023-07-29T00:13:59;94436.03;;;26.48;41.38
10462;BME280;5278;42.656;23.374;2023-07-29T00:16:26;94488.31;;;26.88;41.24
10462;BME280;5278;42.656;23.374;2023-07-29T00:18:53;94481.91;;;26.89;41.25
10462;BME280;5278;42.656;23.374;2023-07-29T00:21:20;94483.19;;;26.92;41.29
10462;BME280;5278;42.656;23.374;2023-07-29T00:23:47;94485.69;;;26.78;41.72
10462;BME280;5278;42.656;23.374;2023-07-29T00:26:15;94460.47;;;26.61;41.91
10462;BME280;5278;42.656;23.374;2023-07-29T00:28:42;94477.78;;;26.63;42.36
10462;BME280;5278;42.656;23.374;2023-07-29T00:31:10;94482.41;;;26.52;42.65
10462;BME280;5278;42.656;23.374;2023-07-29T00:33:37;94481.56;;;26.57;42.69
10462;BME280;5278;42.656;23.374;2023-07-29T00:36:04;94481.75;;;26.66;42.54
10462;BME280;5278;42.656;23.374;2023-07-29T00:38:31;94482.28;;;26.68;42.68
10462;BME280;5278;42.656;23.374;2023-07-29T00:41:00;94484.44;;;26.66;42.58
10462;BME280;5278;42.656;23.374;2023-07-29T00:43:30;94481.25;;;26.64;42.90
10462;BME280;5278;42.656;23.374;2023-07-29T00:45:57;94474.31;;;26.63;43.06
10462;BME280;5278;42.656;23.374;2023-07-29T00:48:25;94472.56;;;26.48;43.32
10462;BME280;5278;42.656;23.374;2023-07-29T00:50:52;94433.34;;;26.09;44.07
10462;BME280;5278;42.656;23.374;2023-07-29T00:53:19;94446.88;;;26.18;43.51
10462;BME280;5278;42.656;23.374;2023-07-29T00:55:46;94459.53;;;26.41;42.50
10462;BME280;5278;42.656;23.374;2023-07-29T00:58:13;94472.41;;;26.34;42.07
10462;BME280;5278;42.656;23.374;2023-07-29T01:00:41;94467.03;;;26.39;41.71
10462;BME280;5278;42.656;23.374;2023-07-29T01:03:08;94461.78;;;26.24;41.58
10462;BME280;5278;42.656;23.374;2023-07-29T01:05:48;94471.66;;;26.19;41.48
10462;BME280;5278;42.656;23.374;2023-07-29T01:08:24;94456.75;;;26.23;41.02
10462;BME280;5278;42.656;23.374;2023-07-29T01:10:58;94465.22;;;26.30;40.68
10462;BME280;5278;42.656;23.374;2023-07-29T01:13:33;94462.28;;;26.31;40.88
10462;BME280;5278;42.656;23.374;2023-07-29T01:16:08;94465.22;;;26.30;41.09
10462;BME280;5278;42.656;23.374;2023-07-29T01:18:38;94466.53;;;26.32;40.75
10462;BME280;5278;42.656;23.374;2023-07-29T01:21:08;94468.75;;;26.15;40.88
10462;BME280;5278;42.656;23.374;2023-07-29T01:23:37;94462.34;;;26.11;40.46
10462;BME280;5278;42.656;23.374;2023-07-29T01:26:04;94462.31;;;26.16;40.42
10462;BME280;5278;42.656;23.374;2023-07-29T01:28:31;94453.97;;;25.89;40.56
10462;BME280;5278;42.656;23.374;2023-07-29T01:31:05;94470.19;;;25.92;40.39
10462;BME280;5278;42.656;23.374;2023-07-29T01:33:39;94471.78;;;25.93;40.84
10462;BME280;5278;42.656;23.374;2023-07-29T01:36:10;94464.63;;;25.89;40.40
10462;BME280;5278;42.656;23.374;2023-07-29T01:38:41;94461.41;;;25.87;40.66
10462;BME280;5278;42.656;23.374;2023-07-29T01:41:09;94461.41;;;25.92;40.46
10462;BME280;5278;42.656;23.374;2023-07-29T01:43:37;94464.03;;;25.97;40.29
10462;BME280;5278;42.656;23.374;2023-07-29T01:46:09;94462.91;;;26.08;40.36
10462;BME280;5278;42.656;23.374;2023-07-29T01:48:36;94467.75;;;26.01;40.71
10462;BME280;5278;42.656;23.374;2023-07-29T01:51:03;94430.38;;;25.52;41.29
10462;BME280;5278;42.656;23.374;2023-07-29T01:53:30;94464.16;;;25.71;41.21
10462;BME280;5278;42.656;23.374;2023-07-29T01:55:58;94469.50;;;25.61;41.96
10462;BME280;5278;42.656;23.374;2023-07-29T01:58:25;94464.41;;;25.75;41.39
10462;BME280;5278;42.656;23.374;2023-07-29T02:00:52;94468.91;;;25.85;41.36
10462;BME280;5278;42.656;23.374;2023-07-29T02:03:19;94465.09;;;25.96;41.09
10462;BME280;5278;42.656;23.374;2023-07-29T02:05:46;94464.84;;;25.97;40.97
10462;BME280;5278;42.656;23.374;2023-07-29T02:08:13;94473.66;;;25.93;41.11
10462;BME280;5278;42.656;23.374;2023-07-29T02:10:40;94468.38;;;25.78;41.34
10462;BME280;5278;42.656;23.374;2023-07-29T02:13:12;94474.56;;;25.68;41.58
10462;BME280;5278;42.656;23.374;2023-07-29T02:15:38;94469.50;;;25.61;41.62
10462;BME280;5278;42.656;23.374;2023-07-29T02:18:06;94466.03;;;25.51;41.35
10462;BME280;5278;42.656;23.374;2023-07-29T02:20:33;94471.72;;;25.29;40.82
10462;BME280;5278;42.656;23.374;2023-07-29T02:23:00;94472.81;;;24.93;42.56
10462;BME280;5278;42.656;23.374;2023-07-29T02:25:26;94476.00;;;24.84;42.64
10462;BME280;5278;42.656;23.374;2023-07-29T02:27:54;94488.47;;;24.69;42.90
10462;BME280;5278;42.656;23.374;2023-07-29T02:30:22;94481.56;;;24.83;42.74
10462;BME280;5278;42.656;23.374;2023-07-29T02:32:49;94394.13;;;24.46;42.14
10462;BME280;5278;42.656;23.374;2023-07-29T02:35:16;94462.16;;;24.62;42.56
10462;BME280;5278;42.656;23.374;2023-07-29T02:37:43;94479.69;;;24.63;43.04
10462;BME280;5278;42.656;23.374;2023-07-29T02:40:11;94458.44;;;24.48;43.27
10462;BME280;5278;42.656;23.374;2023-07-29T02:42:38;94480.50;;;24.69;42.72
10462;BME280;5278;42.656;23.374;2023-07-29T02:45:05;94474.38;;;24.78;42.54
10462;BME280;5278;42.656;23.374;2023-07-29T02:47:36;94466.41;;;24.63;43.26
10462;BME280;5278;42.656;23.374;2023-07-29T02:50:04;94471.47;;;24.60;43.41
10462;BME280;5278;42.656;23.374;2023-07-29T02:52:31;94471.19;;;24.71;42.97
10462;BME280;5278;42.656;23.374;2023-07-29T02:54:57;94482.34;;;24.53;43.69
10462;BME280;5278;42.656;23.374;2023-07-29T02:57:24;94481.78;;;24.46;43.58
10462;BME280;5278;42.656;23.374;2023-07-29T02:59:51;94478.38;;;24.56;43.91
10462;BME280;5278;42.656;23.374;2023-07-29T03:02:18;94479.72;;;24.78;43.14
10462;BME280;5278;42.656;23.374;2023-07-29T03:04:47;94486.09;;;24.88;42.98
10462;BME280;5278;42.656;23.374;2023-07-29T03:07:14;94405.84;;;24.50;42.27
10462;BME280;5278;42.656;23.374;2023-07-29T03:09:41;94487.69;;;25.19;41.97
10462;BME280;5278;42.656;23.374;2023-07-29T03:12:09;94486.06;;;25.38;41.99
10462;BME280;5278;42.656;23.374;2023-07-29T03:14:36;94492.41;;;25.42;41.87
10462;BME280;5278;42.656;23.374;2023-07-29T03:17:04;94495.88;;;25.43;42.27
10462;BME280;5278;42.656;23.374;2023-07-29T03:19:31;94497.50;;;25.39;42.22
10462;BME280;5278;42.656;23.374;2023-07-29T03:21:59;94499.34;;;25.38;42.23
10462;BME280;5278;42.656;23.374;2023-07-29T03:24:26;94498.00;;;25.41;42.04
10462;BME280;5278;42.656;23.374;2023-07-29T03:26:54;94496.41;;;25.45;42.03
10462;BME280;5278;42.656;23.374;2023-07-29T03:29:21;94491.09;;;25.45;41.98
10462;BME280;5278;42.656;23.374;2023-07-29T03:31:47;94486.03;;;25.58;41.97
10462;BME280;5278;42.656;23.374;2023-07-29T03:34:14;94490.28;;;25.64;41.86
10462;BME280;5278;42.656;23.374;2023-07-29T03:36:41;94494.50;;;25.65;42.10
10462;BME280;5278;42.656;23.374;2023-07-29T03:39:09;94499.81;;;25.70;41.97
10462;BME280;5278;42.656;23.374;2023-07-29T03:41:37;94500.63;;;25.71;41.96
10462;BME280;5278;42.656;23.374;2023-07-29T03:44:04;94496.66;;;25.63;41.93
10462;BME280;5278;42.656;23.374;2023-07-29T03:46:31;94477.03;;;25.29;42.74
10462;BME280;5278;42.656;23.374;2023-07-29T03:48:58;94518.25;;;25.37;42.71
10462;BME280;5278;42.656;23.374;2023-07-29T03:51:25;94494.81;;;25.59;42.03
10462;BME280;5278;42.656;23.374;2023-07-29T03:53:51;94498.78;;;25.66;42.14
10462;BME280;5278;42.656;23.374;2023-07-29T03:56:20;94496.91;;;25.72;42.05
10462;BME280;5278;42.656;23.374;2023-07-29T03:58:47;94493.16;;;25.73;42.41
10462;BME280;5278;42.656;23.374;2023-07-29T04:01:14;94481.28;;;25.35;43.24
10462;BME280;5278;42.656;23.374;2023-07-29T04:03:41;94502.59;;;25.05;43.95
10462;BME280;5278;42.656;23.374;2023-07-29T04:06:08;94505.53;;;24.93;44.04
10462;BME280;5278;42.656;23.374;2023-07-29T04:08:35;94502.03;;;24.77;44.29
10462;BME280;5278;42.656;23.374;2023-07-29T04:11:02;94503.88;;;24.77;44.22
10462;BME280;5278;42.656;23.374;2023-07-29T04:13:30;94503.38;;;24.75;44.18
10462;BME280;5278;42.656;23.374;2023-07-29T04:15:57;94512.41;;;24.64;44.36
10462;BME280;5278;42.656;23.374;2023-07-29T04:18:24;94512.13;;;24.55;44.91
10462;BME280;5278;42.656;23.374;2023-07-29T04:20:50;94508.94;;;24.73;44.33
10462;BME280;5278;42.656;23.374;2023-07-29T04:23:17;94511.38;;;25.05;43.55
10462;BME280;5278;42.656;23.374;2023-07-29T04:25:44;94505.22;;;25.35;43.09
10462;BME280;5278;42.656;23.374;2023-07-29T04:28:11;94502.25;;;25.62;42.06
10462;BME280;5278;42.656;23.374;2023-07-29T04:30:39;94502.97;;;25.83;41.69
10462;BME280;5278;42.656;23.374;2023-07-29T04:33:07;94505.56;;;26.03;41.26
10462;BME280;5278;42.656;23.374;2023-07-29T04:35:34;94500.19;;;26.13;41.12
10462;BME280;5278;42.656;23.374;2023-07-29T04:38:00;94504.63;;;26.38;40.53
10462;BME280;5278;42.656;23.374;2023-07-29T04:40:27;94503.94;;;26.61;40.24
10462;BME280;5278;42.656;23.374;2023-07-29T04:42:54;94505.56;;;26.96;39.31
10462;BME280;5278;42.656;23.374;2023-07-29T04:45:21;94505.97;;;27.13;38.74
10462;BME280;5278;42.656;23.374;2023-07-29T04:47:51;94509.63;;;27.22;38.87
10462;BME280;5278;42.656;23.374;2023-07-29T04:50:18;94505.34;;;27.50;38.24
10462;BME280;5278;42.656;23.374;2023-07-29T04:52:45;94483.41;;;27.58;37.64
10462;BME280;5278;42.656;23.374;2023-07-29T04:55:12;94513.84;;;27.81;37.65
10462;BME280;5278;42.656;23.374;2023-07-29T04:57:39;94516.00;;;28.03;37.53
10462;BME280;5278;42.656;23.374;2023-07-29T05:00:07;94521.28;;;28.08;36.94
10462;BME280;5278;42.656;23.374;2023-07-29T05:02:35;94517.25;;;27.87;37.02
10462;BME280;5278;42.656;23.374;2023-07-29T05:05:04;94521.63;;;28.01;37.31
10462;BME280;5278;42.656;23.374;2023-07-29T05:07:31;94524.03;;;28.27;36.28
10462;BME280;5278;42.656;23.374;2023-07-29T05:09:58;94509.72;;;28.55;35.64
10462;BME280;5278;42.656;23.374;2023-07-29T05:12:25;94529.97;;;28.80;35.75
10462;BME280;5278;42.656;23.374;2023-07-29T05:14:54;94528.03;;;29.04;35.22
10462;BME280;5278;42.656;23.374;2023-07-29T05:17:21;94526.50;;;29.30;34.53
10462;BME280;5278;42.656;23.374;2023-07-29T05:19:48;94525.63;;;29.67;34.45
10462;BME280;5278;42.656;23.374;2023-07-29T05:22:17;94525.47;;;29.91;34.12
10462;BME280;5278;42.656;23.374;2023-07-29T05:24:44;94525.16;;;30.33;33.52
10462;BME280;5278;42.656;23.374;2023-07-29T05:27:11;94527.69;;;30.66;33.20
10462;BME280;5278;42.656;23.374;2023-07-29T05:29:38;94531.38;;;30.92;32.11
10462;BME280;5278;42.656;23.374;2023-07-29T05:32:05;94525.69;;;30.94;32.00
10462;BME280;5278;42.656;23.374;2023-07-29T05:34:32;94530.09;;;31.03;31.95
10462;BME280;5278;42.656;23.374;2023-07-29T05:36:59;94528.09;;;31.40;31.50
10462;BME280;5278;42.656;23.374;2023-07-29T05:39:28;94539.63;;;31.40;31.00
10462;BME280;5278;42.656;23.374;2023-07-29T05:41:55;94541.22;;;31.41;31.38
10462;BME280;5278;42.656;23.374;2023-07-29T05:44:22;94518.56;;;31.34;31.32
10462;BME280;5278;42.656;23.374;2023-07-29T05:46:49;94536.34;;;31.66;30.86
10462;BME280;5278;42.656;23.374;2023-07-29T05:49:16;94538.66;;;31.89;30.42
10462;BME280;5278;42.656;23.374;2023-07-29T05:51:43;94544.25;;;32.01;30.17
10462;BME280;5278;42.656;23.374;2023-07-29T05:54:10;94543.38;;;32.15;29.93
10462;BME280;5278;42.656;23.374;2023-07-29T05:56:38;94539.22;;;32.57;29.38
10462;BME280;5278;42.656;23.374;2023-07-29T05:59:05;94538.63;;;32.77;29.09
10462;BME280;5278;42.656;23.374;2023-07-29T06:01:32;94543.38;;;32.80;28.58
10462;BME280;5278;42.656;23.374;2023-07-29T06:03:58;94537.53;;;32.86;28.80
10462;BME280;5278;42.656;23.374;2023-07-29T06:06:25;94537.06;;;33.19;28.20
10462;BME280;5278;42.656;23.374;2023-07-29T06:08:52;94541.16;;;33.08;28.46
10462;BME280;5278;42.656;23.374;2023-07-29T06:11:19;94539.75;;;33.27;28.50
10462;BME280;5278;42.656;23.374;2023-07-29T06:13:47;94536.50;;;33.60;27.93
10462;BME280;5278;42.656;23.374;2023-07-29T06:16:14;94535.38;;;33.78;27.90
10462;BME280;5278;42.656;23.374;2023-07-29T06:18:41;94525.53;;;33.82;27.93
10462;BME280;5278;42.656;23.374;2023-07-29T06:21:08;94530.00;;;34.07;27.50
10462;BME280;5278;42.656;23.374;2023-07-29T06:23:37;94523.09;;;34.36;27.14
10462;BME280;5278;42.656;23.374;2023-07-29T06:26:04;94523.22;;;34.01;26.97
10462;BME280;5278;42.656;23.374;2023-07-29T06:28:32;94524.88;;;34.23;27.24
10462;BME280;5278;42.656;23.374;2023-07-29T06:31:00;94500.31;;;34.16;26.89
10462;BME280;5278;42.656;23.374;2023-07-29T06:33:27;94523.91;;;34.57;27.15
10462;BME280;5278;42.656;23.374;2023-07-29T06:35:54;94514.06;;;34.52;26.89
10462;BME280;5278;42.656;23.374;2023-07-29T06:38:21;94521.63;;;34.88;26.82
10462;BME280;5278;42.656;23.374;2023-07-29T06:40:48;94510.59;;;35.14;26.93
10462;BME280;5278;42.656;23.374;2023-07-29T06:43:15;94504.50;;;35.38;26.62
10462;BME280;5278;42.656;23.374;2023-07-29T06:45:42;94507.69;;;35.40;26.18
10462;BME280;5278;42.656;23.374;2023-07-29T06:48:11;94504.41;;;35.14;26.52
10462;BME280;5278;42.656;23.374;2023-07-29T06:50:38;94496.59;;;35.00;26.20
10462;BME280;5278;42.656;23.374;2023-07-29T06:53:05;94513.47;;;34.97;26.50
10462;BME280;5278;42.656;23.374;2023-07-29T06:55:32;94508.69;;;35.35;26.15
10462;BME280;5278;42.656;23.374;2023-07-29T06:57:59;94500.94;;;35.46;25.62
10462;BME280;5278;42.656;23.374;2023-07-29T07:00:26;94503.44;;;35.63;25.26
10462;BME280;5278;42.656;23.374;2023-07-29T07:02:53;94499.91;;;35.83;25.53
10462;BME280;5278;42.656;23.374;2023-07-29T07:05:22;94507.75;;;36.21;24.90
10462;BME280;5278;42.656;23.374;2023-07-29T07:07:48;94502.88;;;36.51;24.90
10462;BME280;5278;42.656;23.374;2023-07-29T07:10:16;94497.09;;;36.65;24.46
10462;BME280;5278;42.656;23.374;2023-07-29T07:12:43;94506.31;;;36.88;23.91
10462;BME280;5278;42.656;23.374;2023-07-29T07:15:10;94508.16;;;37.12;23.92
10462;BME280;5278;42.656;23.374;2023-07-29T07:17:36;94503.13;;;37.26;24.03
10462;BME280;5278;42.656;23.374;2023-07-29T07:20:05;94506.25;;;37.40;23.75
10462;BME280;5278;42.656;23.374;2023-07-29T07:22:34;94512.34;;;37.37;24.66
10462;BME280;5278;42.656;23.374;2023-07-29T07:25:01;94474.72;;;37.51;24.33
10462;BME280;5278;42.656;23.374;2023-07-29T07:27:28;94507.81;;;37.85;24.27
10462;BME280;5278;42.656;23.374;2023-07-29T07:29:55;94502.13;;;38.21;23.26
10462;BME280;5278;42.656;23.374;2023-07-29T07:32:22;94500.56;;;38.20;23.36
10462;BME280;5278;42.656;23.374;2023-07-29T07:34:49;94495.47;;;38.34;23.22
10462;BME280;5278;42.656;23.374;2023-07-29T07:37:16;94494.75;;;38.38;23.20
10462;BME280;5278;42.656;23.374;2023-07-29T07:39:45;94493.84;;;38.84;22.96
10462;BME280;5278;42.656;23.374;2023-07-29T07:42:12;94502.63;;;39.12;22.44
10462;BME280;5278;42.656;23.374;2023-07-29T07:44:38;94490.03;;;39.24;22.12
10462;BME280;5278;42.656;23.374;2023-07-29T07:47:05;94498.03;;;39.36;21.78
10462;BME280;5278;42.656;23.374;2023-07-29T07:49:32;94497.59;;;39.53;22.12
10462;BME280;5278;42.656;23.374;2023-07-29T07:51:59;94495.47;;;39.85;21.18
10462;BME280;5278;42.656;23.374;2023-07-29T07:54:26;94498.31;;;39.92;21.13
10462;BME280;5278;42.656;23.374;2023-07-29T07:56:55;94499.22;;;40.22;20.69
10462;BME280;5278;42.656;23.374;2023-07-29T07:59:22;94484.28;;;40.39;20.64
10462;BME280;5278;42.656;23.374;2023-07-29T08:01:49;94496.19;;;40.80;20.42
10462;BME280;5278;42.656;23.374;2023-07-29T08:04:17;94500.91;;;41.13;19.96
10462;BME280;5278;42.656;23.374;2023-07-29T08:06:44;94500.16;;;41.16;19.51
10462;BME280;5278;42.656;23.374;2023-07-29T08:09:11;94500.66;;;41.25;19.93
10462;BME280;5278;42.656;23.374;2023-07-29T08:11:38;94505.31;;;41.54;18.84
10462;BME280;5278;42.656;23.374;2023-07-29T08:14:06;94504.31;;;41.36;19.21
10462;BME280;5278;42.656;23.374;2023-07-29T08:16:33;94501.22;;;41.41;19.24
10462;BME280;5278;42.656;23.374;2023-07-29T08:19:00;94502.25;;;41.59;18.85
10462;BME280;5278;42.656;23.374;2023-07-29T08:21:27;94487.56;;;41.38;19.41
10462;BME280;5278;42.656;23.374;2023-07-29T08:23:54;94500.63;;;41.55;19.07
10462;BME280;5278;42.656;23.374;2023-07-29T08:26:20;94504.00;;;41.78;18.78
10462;BME280;5278;42.656;23.374;2023-07-29T08:28:48;94487.59;;;41.78;18.60
10462;BME280;5278;42.656;23.374;2023-07-29T08:31:16;94501.84;;;41.98;18.31
10462;BME280;5278;42.656;23.374;2023-07-29T08:33:44;94432.00;;;41.56;17.59
10462;BME280;5278;42.656;23.374;2023-07-29T08:36:11;94489.56;;;42.25;18.51
10462;BME280;5278;42.656;23.374;2023-07-29T08:38:37;94488.00;;;42.75;17.28
10462;BME280;5278;42.656;23.374;2023-07-29T08:41:10;94491.34;;;43.16;16.91
10462;BME280;5278;42.656;23.374;2023-07-29T08:43:49;94492.69;;;43.65;16.81
10462;BME280;5278;42.656;23.374;2023-07-29T08:46:19;94490.41;;;44.06;16.44
10462;BME280;5278;42.656;23.374;2023-07-29T08:48:46;94483.72;;;44.49;16.10
10462;BME280;5278;42.656;23.374;2023-07-29T08:51:14;94483.72;;;44.78;16.14
10462;BME280;5278;42.656;23.374;2023-07-29T08:53:42;94474.88;;;45.36;15.64
10462;BME280;5278;42.656;23.374;2023-07-29T08:56:10;94475.97;;;45.56;15.16
10462;BME280;5278;42.656;23.374;2023-07-29T08:58:37;94476.28;;;45.65;14.95
10462;BME280;5278;42.656;23.374;2023-07-29T09:01:06;94480.94;;;45.82;15.04
10462;BME280;5278;42.656;23.374;2023-07-29T09:03:34;94478.91;;;46.38;14.22
10462;BME280;5278;42.656;23.374;2023-07-29T09:06:02;94466.66;;;46.84;13.60
10462;BME280;5278;42.656;23.374;2023-07-29T09:08:30;94467.31;;;46.98;13.60
10462;BME280;5278;42.656;23.374;2023-07-29T09:10:57;94482.72;;;46.55;14.08
10462;BME280;5278;42.656;23.374;2023-07-29T09:13:24;94459.22;;;46.81;13.49
10462;BME280;5278;42.656;23.374;2023-07-29T09:15:54;94470.03;;;46.64;13.52
10462;BME280;5278;42.656;23.374;2023-07-29T09:18:22;94467.81;;;46.90;13.30
10462;BME280;5278;42.656;23.374;2023-07-29T09:20:50;94448.72;;;47.06;13.18
10462;BME280;5278;42.656;23.374;2023-07-29T09:23:17;94455.84;;;47.64;13.27
10462;BME280;5278;42.656;23.374;2023-07-29T09:25:46;94454.13;;;47.74;12.74
10462;BME280;5278;42.656;23.374;2023-07-29T09:28:14;94443.91;;;48.01;12.23
10462;BME280;5278;42.656;23.374;2023-07-29T09:30:44;94448.69;;;48.44;12.69
10462;BME280;5278;42.656;23.374;2023-07-29T09:33:12;94446.63;;;48.71;11.83
10462;BME280;5278;42.656;23.374;2023-07-29T09:35:39;94446.56;;;49.14;12.00
10462;BME280;5278;42.656;23.374;2023-07-29T09:38:08;94441.72;;;49.38;11.37
10462;BME280;5278;42.656;23.374;2023-07-29T09:40:36;94448.41;;;49.40;11.53
10462;BME280;5278;42.656;23.374;2023-07-29T09:43:04;94442.91;;;49.56;11.16
10462;BME280;5278;42.656;23.374;2023-07-29T09:45:33;94440.44;;;49.42;11.10
10462;BME280;5278;42.656;23.374;2023-07-29T09:48:02;94440.13;;;49.76;11.36
10462;BME280;5278;42.656;23.374;2023-07-29T09:50:30;94441.13;;;49.82;10.81
10462;BME280;5278;42.656;23.374;2023-07-29T09:52:57;94435.63;;;50.15;10.71
10462;BME280;5278;42.656;23.374;2023-07-29T09:55:26;94435.38;;;50.25;10.77
10462;BME280;5278;42.656;23.374;2023-07-29T09:57:55;94433.03;;;50.24;10.94
10462;BME280;5278;42.656;23.374;2023-07-29T10:00:23;94428.53;;;50.46;10.86
10462;BME280;5278;42.656;23.374;2023-07-29T10:02:50;94428.78;;;50.80;11.00
10462;BME280;5278;42.656;23.374;2023-07-29T10:05:20;94414.66;;;50.75;10.91
10462;BME280;5278;42.656;23.374;2023-07-29T10:07:47;94428.31;;;50.53;11.19
10462;BME280;5278;42.656;23.374;2023-07-29T10:10:15;94425.34;;;50.15;10.68
10462;BME280;5278;42.656;23.374;2023-07-29T10:12:44;94421.94;;;50.08;10.99
10462;BME280;5278;42.656;23.374;2023-07-29T10:15:12;94418.69;;;50.13;10.84
10462;BME280;5278;42.656;23.374;2023-07-29T10:17:39;94397.03;;;50.08;10.74
10462;BME280;5278;42.656;23.374;2023-07-29T10:20:08;94414.53;;;50.21;10.99
10462;BME280;5278;42.656;23.374;2023-07-29T10:22:37;94366.69;;;50.04;11.00
10462;BME280;5278;42.656;23.374;2023-07-29T10:25:08;94404.22;;;49.56;11.42
10462;BME280;5278;42.656;23.374;2023-07-29T10:27:42;94403.97;;;49.83;11.06
10462;BME280;5278;42.656;23.374;2023-07-29T10:30:15;94379.75;;;49.71;10.88
10462;BME280;5278;42.656;23.374;2023-07-29T10:32:43;94376.88;;;49.58;10.97
10462;BME280;5278;42.656;23.374;2023-07-29T10:35:11;94390.97;;;49.12;10.78
10462;BME280;5278;42.656;23.374;2023-07-29T10:37:39;94381.81;;;48.95;11.23
10462;BME280;5278;42.656;23.374;2023-07-29T10:40:08;94381.31;;;49.00;11.26
10462;BME280;5278;42.656;23.374;2023-07-29T10:42:35;94371.56;;;48.56;11.58
10462;BME280;5278;42.656;23.374;2023-07-29T10:45:19;94374.16;;;48.01;11.92
10462;BME280;5278;42.656;23.374;2023-07-29T10:47:47;94370.59;;;48.00;12.05
10462;BME280;5278;42.656;23.374;2023-07-29T10:50:18;94366.72;;;48.41;11.60
10462;BME280;5278;42.656;23.374;2023-07-29T10:52:49;94365.25;;;48.32;12.01
10462;BME280;5278;42.656;23.374;2023-07-29T10:55:26;94365.94;;;48.60;11.61
10462;BME280;5278;42.656;23.374;2023-07-29T10:58:05;94363.41;;;48.69;11.72
10462;BME280;5278;42.656;23.374;2023-07-29T11:00:34;94357.81;;;48.53;11.32
10462;BME280;5278;42.656;23.374;2023-07-29T11:03:02;94354.84;;;48.44;11.57
10462;BME280;5278;42.656;23.374;2023-07-29T11:05:43;94353.22;;;48.23;12.23
10462;BME280;5278;42.656;23.374;2023-07-29T11:08:17;94356.66;;;48.30;11.87
10462;BME280;5278;42.656;23.374;2023-07-29T11:10:57;94342.53;;;48.05;12.17
10462;BME280;5278;42.656;23.374;2023-07-29T11:13:26;94353.16;;;48.07;11.36
10462;BME280;5278;42.656;23.374;2023-07-29T11:15:55;94348.19;;;48.18;11.48
10462;BME280;5278;42.656;23.374;2023-07-29T11:18:26;94332.28;;;47.82;11.52
10462;BME280;5278;42.656;23.374;2023-07-29T11:20:54;94348.69;;;47.13;11.93
10462;BME280;5278;42.656;23.374;2023-07-29T11:23:27;94337.81;;;46.72;11.79
10462;BME280;5278;42.656;23.374;2023-07-29T11:25:55;94355.81;;;46.05;11.44
10462;BME280;5278;42.656;23.374;2023-07-29T11:28:22;94333.75;;;45.09;12.29
10462;BME280;5278;42.656;23.374;2023-07-29T11:30:50;94339.47;;;44.66;13.14
10462;BME280;5278;42.656;23.374;2023-07-29T11:33:19;94331.44;;;43.88;13.09
10462;BME280;5278;42.656;23.374;2023-07-29T11:35:47;94334.53;;;43.30;13.85
10462;BME280;5278;42.656;23.374;2023-07-29T11:38:17;94338.41;;;43.11;14.36
10462;BME280;5278;42.656;23.374;2023-07-29T11:40:54;94337.44;;;42.54;14.18
10462;BME280;5278;42.656;23.374;2023-07-29T11:43:21;94327.03;;;42.88;14.34
10462;BME280;5278;42.656;23.374;2023-07-29T11:45:48;94321.94;;;42.93;14.71
10462;BME280;5278;42.656;23.374;2023-07-29T11:48:15;94318.84;;;43.02;14.64
10462;BME280;5278;42.656;23.374;2023-07-29T11:50:45;94311.34;;;42.74;14.48
10462;BME280;5278;42.656;23.374;2023-07-29T11:53:12;94315.06;;;42.27;14.78
10462;BME280;5278;42.656;23.374;2023-07-29T11:55:39;94317.34;;;42.25;15.75
10462;BME280;5278;42.656;23.374;2023-07-29T11:58:07;94318.59;;;42.35;15.84
10462;BME280;5278;42.656;23.374;2023-07-29T12:00:34;94314.19;;;42.20;15.28
10462;BME280;5278;42.656;23.374;2023-07-29T12:03:01;94317.13;;;41.86;16.66
10462;BME280;5278;42.656;23.374;2023-07-29T12:05:28;94311.34;;;41.44;16.81
10462;BME280;5278;42.656;23.374;2023-07-29T12:07:57;94304.03;;;41.11;16.83
10462;BME280;5278;42.656;23.374;2023-07-29T12:10:25;94304.38;;;41.06;16.76
10462;BME280;5278;42.656;23.374;2023-07-29T12:12:52;94302.06;;;41.08;16.25
10462;BME280;5278;42.656;23.374;2023-07-29T12:15:26;94302.53;;;40.47;16.61
10462;BME280;5278;42.656;23.374;2023-07-29T12:17:55;94292.28;;;40.07;17.33
10462;BME280;5278;42.656;23.374;2023-07-29T12:20:25;94275.94;;;39.77;17.60
10462;BME280;5278;42.656;23.374;2023-07-29T12:22:54;94284.94;;;39.81;17.51
10462;BME280;5278;42.656;23.374;2023-07-29T12:25:23;94284.34;;;39.68;17.78
10462;BME280;5278;42.656;23.374;2023-07-29T12:27:50;94287.38;;;39.63;17.05
10462;BME280;5278;42.656;23.374;2023-07-29T12:30:20;94275.19;;;39.31;17.79
10462;BME280;5278;42.656;23.374;2023-07-29T12:32:48;94287.13;;;39.45;17.25
10462;BME280;5278;42.656;23.374;2023-07-29T12:35:14;94286.69;;;39.21;16.94
10462;BME280;5278;42.656;23.374;2023-07-29T12:37:41;94275.56;;;39.06;17.06
10462;BME280;5278;42.656;23.374;2023-07-29T12:40:20;94295.00;;;39.05;17.32
10462;BME280;5278;42.656;23.374;2023-07-29T12:42:50;94292.50;;;38.96;16.83
10462;BME280;5278;42.656;23.374;2023-07-29T12:45:18;94283.34;;;38.85;16.94
10462;BME280;5278;42.656;23.374;2023-07-29T12:47:48;94279.25;;;38.53;17.45
10462;BME280;5278;42.656;23.374;2023-07-29T12:50:15;94274.84;;;38.25;17.79
10462;BME280;5278;42.656;23.374;2023-07-29T12:52:42;94258.47;;;37.87;18.27
10462;BME280;5278;42.656;23.374;2023-07-29T12:55:09;94281.66;;;37.81;18.16
10462;BME280;5278;42.656;23.374;2023-07-29T12:57:39;94266.34;;;37.92;18.33
10462;BME280;5278;42.656;23.374;2023-07-29T13:00:09;94267.38;;;38.03;18.49
10462;BME280;5278;42.656;23.374;2023-07-29T13:02:36;94277.13;;;38.23;18.34
10462;BME280;5278;42.656;23.374;2023-07-29T13:05:04;94273.75;;;38.30;17.49